Yacuiba, Bolivia
Current Conditions -  °F | °C
As of 10:00 AM on Friday 31 Oct 2014 (Local Time) from SLYA Reporting Station
Few Clouds Few Clouds  
Wind Chill: 90°   Ceiling: Unl
Heat Index: 100°   Visibility: 6mi
Dew Point: 75°   Wind: 5mph
Humidity: 62%   Direction: 180°S
Pressure: 29.8"   Gusts: NA
Location:  22.03°S, 63.7°W
Report Text: SLYA 311400Z 18004KT 9999 FEW023 32/24 Q1009
Loading
Personal Weather Stations






























Interactive Weather Map
Tropical Storm Tracking
New forecast layout! Learn more

10-Day Weather Forecast

Advertisements
Track Severe Weather on mobile